CST,Max TemperatureF,Mean TemperatureF,Min TemperatureF,Max Dew PointF,MeanDew PointF,Min DewpointF,Max Humidity, Mean Humidity, Min Humidity, Max Sea Level PressureIn, Mean Sea Level PressureIn, Min Sea Level PressureIn, Max VisibilityMiles, Mean VisibilityMiles, Min VisibilityMiles, Max Wind SpeedMPH, Mean Wind SpeedMPH, Max Gust SpeedMPH,PrecipitationIn, CloudCover, Events, WindDirDegrees
2011-11-1,82,76,71,75,73,70,100,88,74,30.00,29.95,29.88,6,6,2,9,6,,0.00,6,Rain,266
2011-11-2,86,78,71,77,75,70,100,85,70,30.01,29.95,29.89,6,6,6,9,4,,0.00,4,,33
2011-11-3,84,80,75,77,76,73,100,88,74,30.01,29.97,29.91,6,6,6,9,5,,0.00,4,Rain-Thunderstorm,31
2011-11-4,82,78,73,75,72,70,100,81,66,30.01,29.96,29.91,6,6,6,12,5,,0.00,6,Rain,340
2011-11-5,82,76,71,75,71,68,94,79,66,30.00,29.94,29.88,6,6,6,9,3,,0.00,5,,5
2011-11-6,86,80,73,79,73,72,94,79,66,30.00,29.94,29.89,6,6,6,13,8,,0.00,4,,23
2011-11-7,86,80,73,72,70,70,89,72,58,30.00,29.95,29.91,6,6,6,9,6,,0.00,3,,31
2011-11-8,84,76,69,73,72,70,100,82,62,29.97,29.92,29.87,6,6,6,14,3,,0.00,5,,10
2011-11-9,86,80,73,75,73,68,100,80,62,29.97,29.93,29.89,6,6,6,13,4,,0.00,4,,45
2011-11-10,84,78,73,75,73,72,100,83,66,30.01,29.96,29.91,6,6,6,9,3,,0.00,4,Rain,20
2011-11-11,82,76,69,72,69,68,94,77,62,30.08,30.04,30.00,6,6,6,12,6,,0.00,3,,338
2011-11-12,80,74,69,73,69,64,94,82,65,30.11,30.05,30.00,6,6,6,9,6,,0.00,6,Rain,316
2011-11-13,84,76,69,73,72,70,100,80,62,30.05,30.00,29.94,6,6,6,10,4,,0.00,2,,29
2011-11-14,87,79,71,77,74,70,100,83,62,30.00,29.94,29.88,6,5,0,7,1,,0.00,3,Fog,118
2011-11-15,87,81,75,79,76,73,94,79,66,29.94,29.88,29.83,6,6,6,8,4,,0.00,2,,111
2011-11-16,87,84,80,79,77,77,89,77,70,29.94,29.88,29.84,6,6,6,10,8,,0.00,3,,115
2011-11-17,87,84,80,79,76,73,89,76,66,30.00,29.94,29.89,6,6,6,12,7,,0.00,3,Rain,62
2011-11-18,84,78,73,77,74,72,100,84,70,30.01,29.97,29.92,6,6,6,12,5,,0.00,4,Rain,17
2011-11-19,84,78,73,77,74,72,94,85,74,30.01,29.98,29.93,6,6,5,9,3,,0.00,4,Rain,354
2011-11-20,86,80,75,77,75,73,94,85,74,30.04,30.00,29.95,6,6,4,10,4,,0.00,4,,29
2011-11-21,86,80,75,79,75,73,100,84,70,30.05,29.99,29.93,6,6,3,10,4,,0.00,4,,75
2011-11-22,86,80,73,77,75,72,100,84,70,30.03,29.98,29.93,6,6,6,12,3,,0.00,4,Rain,102
2011-11-23,86,78,71,75,73,72,100,85,66,30.09,30.03,29.98,6,6,6,12,3,,0.00,4,Rain,47
2011-11-24,84,76,69,75,71,66,100,80,55,30.14,30.07,30.03,6,5,0,9,5,,0.00,2,Fog,351
2011-11-25,84,76,68,72,70,66,100,79,58,30.09,30.02,29.94,6,6,6,8,3,,0.00,2,,19
2011-11-26,82,76,69,73,71,68,94,89,70,29.98,29.93,29.89,6,6,6,6,1,,0.00,4,,100
2011-11-27,82,78,73,77,74,72,100,89,79,29.98,29.92,29.86,6,6,4,9,2,,0.00,5,Rain,340
2011-11-28,77,72,66,72,65,61,94,78,65,30.13,30.06,29.98,6,6,6,18,11,30,0.00,6,,304
2011-11-29,77,68,60,64,61,57,100,76,50,30.18,30.11,30.06,6,6,6,9,5,,0.00,2,,312
2011-11-30,78,70,62,63,59,55,94,68,47,30.15,30.10,30.04,6,6,6,12,5,,0.00,3,,320